sensor_id;sensor_type;location;lat;lon;timestamp;pressure;altitude;pressure_sealevel;temperature
67966;BMP280;54749;47.850;9.002;2023-04-25T00:00:22;95459.59;;;6.96
67966;BMP280;54749;47.850;9.002;2023-04-25T00:03:09;95458.59;;;6.75
67966;BMP280;54749;47.850;9.002;2023-04-25T00:05:37;95449.16;;;6.66
67966;BMP280;54749;47.850;9.002;2023-04-25T00:08:04;95457.59;;;6.65
67966;BMP280;54749;47.850;9.002;2023-04-25T00:10:32;95448.06;;;6.58
67966;BMP280;54749;47.850;9.002;2023-04-25T00:12:59;95436.75;;;6.53
67966;BMP280;54749;47.850;9.002;2023-04-25T00:15:29;95442.06;;;6.48
67966;BMP280;54749;47.850;9.002;2023-04-25T00:17:57;95440.97;;;6.52
67966;BMP280;54749;47.850;9.002;2023-04-25T00:20:24;95430.13;;;6.52
67966;BMP280;54749;47.850;9.002;2023-04-25T00:22:51;95433.16;;;6.45
67966;BMP280;54749;47.850;9.002;2023-04-25T00:25:22;95416.97;;;6.36
67966;BMP280;54749;47.850;9.002;2023-04-25T00:27:50;95414.09;;;6.30
67966;BMP280;54749;47.850;9.002;2023-04-25T00:30:17;95420.75;;;6.19
67966;BMP280;54749;47.850;9.002;2023-04-25T00:32:44;95417.94;;;6.11
67966;BMP280;54749;47.850;9.002;2023-04-25T00:35:13;95421.56;;;6.07
67966;BMP280;54749;47.850;9.002;2023-04-25T00:37:40;95420.38;;;6.00
67966;BMP280;54749;47.850;9.002;2023-04-25T00:40:08;95411.75;;;5.92
67966;BMP280;54749;47.850;9.002;2023-04-25T00:42:35;95407.22;;;5.85
67966;BMP280;54749;47.850;9.002;2023-04-25T00:45:05;95416.16;;;5.77
67966;BMP280;54749;47.850;9.002;2023-04-25T00:47:33;95412.97;;;5.75
67966;BMP280;54749;47.850;9.002;2023-04-25T00:50:00;95414.66;;;5.74
67966;BMP280;54749;47.850;9.002;2023-04-25T00:52:27;95415.47;;;5.75
67966;BMP280;54749;47.850;9.002;2023-04-25T00:54:54;95415.34;;;5.76
67966;BMP280;54749;47.850;9.002;2023-04-25T00:57:21;95416.97;;;5.77
67966;BMP280;54749;47.850;9.002;2023-04-25T00:59:50;95399.22;;;5.80
67966;BMP280;54749;47.850;9.002;2023-04-25T01:02:17;95403.94;;;5.84
67966;BMP280;54749;47.850;9.002;2023-04-25T01:04:47;95409.63;;;5.86
67966;BMP280;54749;47.850;9.002;2023-04-25T01:07:14;95405.22;;;5.90
67966;BMP280;54749;47.850;9.002;2023-04-25T01:09:42;95402.53;;;5.93
67966;BMP280;54749;47.850;9.002;2023-04-25T01:12:09;95390.47;;;5.97
67966;BMP280;54749;47.850;9.002;2023-04-25T01:14:36;95389.25;;;6.03
67966;BMP280;54749;47.850;9.002;2023-04-25T01:17:05;95379.81;;;6.06
67966;BMP280;54749;47.850;9.002;2023-04-25T01:19:32;95389.66;;;6.09
67966;BMP280;54749;47.850;9.002;2023-04-25T01:21:59;95378.03;;;6.08
67966;BMP280;54749;47.850;9.002;2023-04-25T01:24:32;95391.28;;;6.10
67966;BMP280;54749;47.850;9.002;2023-04-25T01:27:00;95391.16;;;6.12
67966;BMP280;54749;47.850;9.002;2023-04-25T01:29:28;95385.81;;;6.16
67966;BMP280;54749;47.850;9.002;2023-04-25T01:31:56;95383.00;;;6.20
67966;BMP280;54749;47.850;9.002;2023-04-25T01:34:25;95382.69;;;6.25
67966;BMP280;54749;47.850;9.002;2023-04-25T01:36:53;95387.72;;;6.25
67966;BMP280;54749;47.850;9.002;2023-04-25T01:39:21;95376.78;;;6.26
67966;BMP280;54749;47.850;9.002;2023-04-25T01:41:48;95382.03;;;6.23
67966;BMP280;54749;47.850;9.002;2023-04-25T01:44:16;95382.22;;;6.20
67966;BMP280;54749;47.850;9.002;2023-04-25T01:46:43;95379.69;;;6.20
67966;BMP280;54749;47.850;9.002;2023-04-25T01:49:11;95377.00;;;6.23
67966;BMP280;54749;47.850;9.002;2023-04-25T01:51:39;95369.34;;;6.24
67966;BMP280;54749;47.850;9.002;2023-04-25T01:54:07;95369.03;;;6.29
67966;BMP280;54749;47.850;9.002;2023-04-25T01:56:37;95369.34;;;6.24
67966;BMP280;54749;47.850;9.002;2023-04-25T01:59:06;95374.91;;;6.17
67966;BMP280;54749;47.850;9.002;2023-04-25T02:02:03;95361.84;;;6.12
67966;BMP280;54749;47.850;9.002;2023-04-25T02:04:32;95361.19;;;6.10
67966;BMP280;54749;47.850;9.002;2023-04-25T02:07:00;95356.16;;;6.10
67966;BMP280;54749;47.850;9.002;2023-04-25T02:09:37;95347.94;;;6.08
67966;BMP280;54749;47.850;9.002;2023-04-25T02:12:07;95351.16;;;6.10
67966;BMP280;54749;47.850;9.002;2023-04-25T02:14:55;95344.41;;;6.11
67966;BMP280;54749;47.850;9.002;2023-04-25T02:17:46;95343.41;;;6.13
67966;BMP280;54749;47.850;9.002;2023-04-25T02:20:14;95336.38;;;6.18
67966;BMP280;54749;47.850;9.002;2023-04-25T02:22:42;95328.03;;;6.17
67966;BMP280;54749;47.850;9.002;2023-04-25T02:25:10;95321.81;;;6.11
67966;BMP280;54749;47.850;9.002;2023-04-25T02:27:38;95322.44;;;6.02
67966;BMP280;54749;47.850;9.002;2023-04-25T02:30:07;95337.03;;;5.97
67966;BMP280;54749;47.850;9.002;2023-04-25T02:32:34;95329.00;;;5.92
67966;BMP280;54749;47.850;9.002;2023-04-25T02:35:02;95327.72;;;5.87
67966;BMP280;54749;47.850;9.002;2023-04-25T02:37:31;95339.16;;;5.78
67966;BMP280;54749;47.850;9.002;2023-04-25T02:39:58;95337.94;;;5.59
67966;BMP280;54749;47.850;9.002;2023-04-25T02:42:26;95332.03;;;5.36
67966;BMP280;54749;47.850;9.002;2023-04-25T02:44:54;95327.28;;;5.20
67966;BMP280;54749;47.850;9.002;2023-04-25T02:47:21;95329.19;;;5.16
67966;BMP280;54749;47.850;9.002;2023-04-25T02:49:49;95331.00;;;5.14
67966;BMP280;54749;47.850;9.002;2023-04-25T02:52:16;95323.88;;;5.08
67966;BMP280;54749;47.850;9.002;2023-04-25T02:54:49;95330.97;;;5.02
67966;BMP280;54749;47.850;9.002;2023-04-25T02:57:16;95332.28;;;4.95
67966;BMP280;54749;47.850;9.002;2023-04-25T02:59:43;95336.25;;;4.86
67966;BMP280;54749;47.850;9.002;2023-04-25T03:02:10;95336.16;;;4.75
67966;BMP280;54749;47.850;9.002;2023-04-25T03:04:37;95339.91;;;4.68
67966;BMP280;54749;47.850;9.002;2023-04-25T03:07:05;95321.19;;;4.61
67966;BMP280;54749;47.850;9.002;2023-04-25T03:09:32;95330.75;;;4.55
67966;BMP280;54749;47.850;9.002;2023-04-25T03:11:59;95323.75;;;4.48
67966;BMP280;54749;47.850;9.002;2023-04-25T03:14:27;95333.44;;;4.40
67966;BMP280;54749;47.850;9.002;2023-04-25T03:16:54;95326.91;;;4.37
67966;BMP280;54749;47.850;9.002;2023-04-25T03:19:21;95320.41;;;4.35
67966;BMP280;54749;47.850;9.002;2023-04-25T03:21:48;95322.28;;;4.32
67966;BMP280;54749;47.850;9.002;2023-04-25T03:24:15;95327.03;;;4.22
67966;BMP280;54749;47.850;9.002;2023-04-25T03:26:43;95324.38;;;4.12
67966;BMP280;54749;47.850;9.002;2023-04-25T03:29:10;95320.75;;;4.03
67966;BMP280;54749;47.850;9.002;2023-04-25T03:31:39;95322.09;;;3.95
67966;BMP280;54749;47.850;9.002;2023-04-25T03:34:06;95328.19;;;3.91
67966;BMP280;54749;47.850;9.002;2023-04-25T03:36:33;95316.03;;;3.85
67966;BMP280;54749;47.850;9.002;2023-04-25T03:39:00;95331.41;;;3.80
67966;BMP280;54749;47.850;9.002;2023-04-25T03:41:30;95311.78;;;3.74
67966;BMP280;54749;47.850;9.002;2023-04-25T03:44:02;95322.13;;;3.68
67966;BMP280;54749;47.850;9.002;2023-04-25T03:46:29;95329.00;;;3.65
67966;BMP280;54749;47.850;9.002;2023-04-25T03:48:57;95314.91;;;3.64
67966;BMP280;54749;47.850;9.002;2023-04-25T03:51:38;95330.88;;;3.61
67966;BMP280;54749;47.850;9.002;2023-04-25T03:54:06;95316.09;;;3.58
67966;BMP280;54749;47.850;9.002;2023-04-25T03:56:52;95317.78;;;3.58
67966;BMP280;54749;47.850;9.002;2023-04-25T03:59:22;95318.66;;;3.57
67966;BMP280;54749;47.850;9.002;2023-04-25T04:01:49;95316.09;;;3.58
67966;BMP280;54749;47.850;9.002;2023-04-25T04:04:17;95310.22;;;3.59
67966;BMP280;54749;47.850;9.002;2023-04-25T04:06:44;95315.38;;;3.70
67966;BMP280;54749;47.850;9.002;2023-04-25T04:09:18;95295.03;;;3.76
67966;BMP280;54749;47.850;9.002;2023-04-25T04:11:47;95291.72;;;3.75
67966;BMP280;54749;47.850;9.002;2023-04-25T04:14:15;95290.94;;;3.61
67966;BMP280;54749;47.850;9.002;2023-04-25T04:16:44;95297.63;;;3.47
67966;BMP280;54749;47.850;9.002;2023-04-25T04:19:12;95294.69;;;3.41
67966;BMP280;54749;47.850;9.002;2023-04-25T04:21:44;95296.72;;;3.48
67966;BMP280;54749;47.850;9.002;2023-04-25T04:24:12;95297.72;;;3.59
67966;BMP280;54749;47.850;9.002;2023-04-25T04:26:55;95277.69;;;3.73
67966;BMP280;54749;47.850;9.002;2023-04-25T04:29:36;95286.78;;;3.87
67966;BMP280;54749;47.850;9.002;2023-04-25T04:32:15;95278.72;;;3.96
67966;BMP280;54749;47.850;9.002;2023-04-25T04:34:43;95269.25;;;4.01
67966;BMP280;54749;47.850;9.002;2023-04-25T04:37:14;95271.75;;;4.01
67966;BMP280;54749;47.850;9.002;2023-04-25T04:39:42;95265.88;;;4.02
67966;BMP280;54749;47.850;9.002;2023-04-25T04:42:22;95269.56;;;4.35
67966;BMP280;54749;47.850;9.002;2023-04-25T04:45:06;95261.75;;;4.77
67966;BMP280;54749;47.850;9.002;2023-04-25T04:48:05;95270.00;;;5.27
67966;BMP280;54749;47.850;9.002;2023-04-25T04:50:48;95257.44;;;5.76
67966;BMP280;54749;47.850;9.002;2023-04-25T04:53:24;95234.50;;;6.28
67966;BMP280;54749;47.850;9.002;2023-04-25T04:56:10;95245.34;;;6.62
67966;BMP280;54749;47.850;9.002;2023-04-25T04:58:58;95248.59;;;6.85
67966;BMP280;54749;47.850;9.002;2023-04-25T05:01:44;95261.75;;;6.99
67966;BMP280;54749;47.850;9.002;2023-04-25T05:04:21;95250.00;;;7.10
67966;BMP280;54749;47.850;9.002;2023-04-25T05:06:51;95247.28;;;7.02
67966;BMP280;54749;47.850;9.002;2023-04-25T05:09:39;95241.72;;;6.65
67966;BMP280;54749;47.850;9.002;2023-04-25T05:12:25;95253.47;;;6.42
67966;BMP280;54749;47.850;9.002;2023-04-25T05:14:59;95249.56;;;6.28
67966;BMP280;54749;47.850;9.002;2023-04-25T05:17:50;95248.19;;;6.12
67966;BMP280;54749;47.850;9.002;2023-04-25T05:20:27;95247.69;;;6.19
67966;BMP280;54749;47.850;9.002;2023-04-25T05:23:12;95254.34;;;6.30
67966;BMP280;54749;47.850;9.002;2023-04-25T05:25:51;95254.59;;;6.38
67966;BMP280;54749;47.850;9.002;2023-04-25T05:28:39;95248.72;;;6.50
67966;BMP280;54749;47.850;9.002;2023-04-25T05:31:27;95246.72;;;6.65
67966;BMP280;54749;47.850;9.002;2023-04-25T05:34:02;95247.47;;;6.89
67966;BMP280;54749;47.850;9.002;2023-04-25T05:36:40;95245.13;;;7.41
67966;BMP280;54749;47.850;9.002;2023-04-25T05:39:07;95229.13;;;7.95
67966;BMP280;54749;47.850;9.002;2023-04-25T05:41:54;95234.28;;;8.66
67966;BMP280;54749;47.850;9.002;2023-04-25T05:44:40;95226.59;;;9.27
67966;BMP280;54749;47.850;9.002;2023-04-25T05:47:21;95208.31;;;9.63
67966;BMP280;54749;47.850;9.002;2023-04-25T05:50:04;95225.50;;;10.08
67966;BMP280;54749;47.850;9.002;2023-04-25T05:53:03;95217.69;;;10.66
67966;BMP280;54749;47.850;9.002;2023-04-25T05:55:39;95223.16;;;10.71
67966;BMP280;54749;47.850;9.002;2023-04-25T05:58:19;95215.97;;;10.85
67966;BMP280;54749;47.850;9.002;2023-04-25T06:00:47;95210.09;;;10.75
67966;BMP280;54749;47.850;9.002;2023-04-25T06:03:14;95212.22;;;10.98
67966;BMP280;54749;47.850;9.002;2023-04-25T06:05:47;95215.50;;;11.71
67966;BMP280;54749;47.850;9.002;2023-04-25T06:08:14;95206.56;;;12.46
67966;BMP280;54749;47.850;9.002;2023-04-25T06:10:42;95197.78;;;12.92
67966;BMP280;54749;47.850;9.002;2023-04-25T06:13:09;95208.22;;;13.06
67966;BMP280;54749;47.850;9.002;2023-04-25T06:15:37;95214.72;;;13.50
67966;BMP280;54749;47.850;9.002;2023-04-25T06:18:04;95204.63;;;13.90
67966;BMP280;54749;47.850;9.002;2023-04-25T06:20:33;95204.28;;;14.34
67966;BMP280;54749;47.850;9.002;2023-04-25T06:23:01;95200.88;;;14.66
67966;BMP280;54749;47.850;9.002;2023-04-25T06:25:50;95216.25;;;14.56
67966;BMP280;54749;47.850;9.002;2023-04-25T06:28:18;95207.47;;;14.28
67966;BMP280;54749;47.850;9.002;2023-04-25T06:30:46;95230.25;;;14.12
67966;BMP280;54749;47.850;9.002;2023-04-25T06:33:17;95223.84;;;13.93
67966;BMP280;54749;47.850;9.002;2023-04-25T06:35:45;95219.50;;;13.85
67966;BMP280;54749;47.850;9.002;2023-04-25T06:38:15;95231.41;;;13.60
67966;BMP280;54749;47.850;9.002;2023-04-25T06:40:46;95222.38;;;13.33
67966;BMP280;54749;47.850;9.002;2023-04-25T06:43:14;95228.44;;;13.15
67966;BMP280;54749;47.850;9.002;2023-04-25T06:46:00;95223.28;;;13.07
67966;BMP280;54749;47.850;9.002;2023-04-25T06:48:29;95231.78;;;12.98
67966;BMP280;54749;47.850;9.002;2023-04-25T06:50:57;95228.75;;;12.78
67966;BMP280;54749;47.850;9.002;2023-04-25T06:53:25;95224.84;;;12.66
67966;BMP280;54749;47.850;9.002;2023-04-25T06:55:58;95230.16;;;12.46
67966;BMP280;54749;47.850;9.002;2023-04-25T06:58:30;95247.31;;;12.09
67966;BMP280;54749;47.850;9.002;2023-04-25T07:01:21;95240.38;;;11.40
67966;BMP280;54749;47.850;9.002;2023-04-25T07:03:48;95252.66;;;11.07
67966;BMP280;54749;47.850;9.002;2023-04-25T07:06:18;95249.50;;;10.78
67966;BMP280;54749;47.850;9.002;2023-04-25T07:08:45;95261.03;;;10.52
67966;BMP280;54749;47.850;9.002;2023-04-25T07:11:12;95265.53;;;10.40
67966;BMP280;54749;47.850;9.002;2023-04-25T07:13:39;95269.78;;;10.30
67966;BMP280;54749;47.850;9.002;2023-04-25T07:16:07;95275.75;;;10.29
67966;BMP280;54749;47.850;9.002;2023-04-25T07:18:35;95272.16;;;10.22
67966;BMP280;54749;47.850;9.002;2023-04-25T07:21:03;95271.97;;;10.05
67966;BMP280;54749;47.850;9.002;2023-04-25T07:23:32;95292.13;;;9.96
67966;BMP280;54749;47.850;9.002;2023-04-25T07:26:06;95286.22;;;9.77
67966;BMP280;54749;47.850;9.002;2023-04-25T07:28:34;95282.84;;;9.47
67966;BMP280;54749;47.850;9.002;2023-04-25T07:31:01;95300.75;;;9.25
67966;BMP280;54749;47.850;9.002;2023-04-25T07:33:31;95296.50;;;8.85
67966;BMP280;54749;47.850;9.002;2023-04-25T07:35:58;95305.34;;;8.39
67966;BMP280;54749;47.850;9.002;2023-04-25T07:38:26;95328.03;;;8.17
67966;BMP280;54749;47.850;9.002;2023-04-25T07:40:54;95333.28;;;7.82
67966;BMP280;54749;47.850;9.002;2023-04-25T07:43:21;95331.66;;;7.70
67966;BMP280;54749;47.850;9.002;2023-04-25T07:45:56;95341.91;;;7.46
67966;BMP280;54749;47.850;9.002;2023-04-25T07:48:23;95353.81;;;7.11
67966;BMP280;54749;47.850;9.002;2023-04-25T07:50:52;95353.41;;;6.94
67966;BMP280;54749;47.850;9.002;2023-04-25T07:53:20;95352.16;;;6.65
67966;BMP280;54749;47.850;9.002;2023-04-25T07:55:52;95361.78;;;6.36
67966;BMP280;54749;47.850;9.002;2023-04-25T07:58:21;95362.22;;;6.30
67966;BMP280;54749;47.850;9.002;2023-04-25T08:00:57;95355.09;;;6.25
67966;BMP280;54749;47.850;9.002;2023-04-25T08:03:37;95358.91;;;6.30
67966;BMP280;54749;47.850;9.002;2023-04-25T08:06:10;95356.66;;;6.38
67966;BMP280;54749;47.850;9.002;2023-04-25T08:08:48;95346.06;;;6.57
67966;BMP280;54749;47.850;9.002;2023-04-25T08:11:18;95344.41;;;6.68
67966;BMP280;54749;47.850;9.002;2023-04-25T08:13:45;95338.50;;;6.80
67966;BMP280;54749;47.850;9.002;2023-04-25T08:16:13;95341.19;;;6.89
67966;BMP280;54749;47.850;9.002;2023-04-25T08:18:40;95350.16;;;7.04
67966;BMP280;54749;47.850;9.002;2023-04-25T08:21:07;95353.63;;;7.14
67966;BMP280;54749;47.850;9.002;2023-04-25T08:23:35;95346.09;;;7.24
67966;BMP280;54749;47.850;9.002;2023-04-25T08:26:08;95339.78;;;7.19
67966;BMP280;54749;47.850;9.002;2023-04-25T08:28:37;95339.78;;;7.19
67966;BMP280;54749;47.850;9.002;2023-04-25T08:31:05;95351.25;;;7.23
67966;BMP280;54749;47.850;9.002;2023-04-25T08:33:40;95348.97;;;7.31
67966;BMP280;54749;47.850;9.002;2023-04-25T08:36:31;95355.72;;;7.41
67966;BMP280;54749;47.850;9.002;2023-04-25T08:39:13;95355.41;;;7.45
67966;BMP280;54749;47.850;9.002;2023-04-25T08:41:50;95353.81;;;7.55
67966;BMP280;54749;47.850;9.002;2023-04-25T08:44:17;95365.94;;;7.61
67966;BMP280;54749;47.850;9.002;2023-04-25T08:46:46;95368.47;;;7.61
67966;BMP280;54749;47.850;9.002;2023-04-25T08:49:25;95371.78;;;7.72
67966;BMP280;54749;47.850;9.002;2023-04-25T08:51:54;95363.00;;;7.77
67966;BMP280;54749;47.850;9.002;2023-04-25T08:54:23;95376.00;;;7.71
67966;BMP280;54749;47.850;9.002;2023-04-25T08:56:57;95379.91;;;7.75
67966;BMP280;54749;47.850;9.002;2023-04-25T08:59:25;95382.88;;;7.80
67966;BMP280;54749;47.850;9.002;2023-04-25T09:01:53;95391.81;;;7.84
67966;BMP280;54749;47.850;9.002;2023-04-25T09:04:21;95391.94;;;7.83
67966;BMP280;54749;47.850;9.002;2023-04-25T09:06:49;95381.75;;;7.84
67966;BMP280;54749;47.850;9.002;2023-04-25T09:09:16;95406.56;;;7.78
67966;BMP280;54749;47.850;9.002;2023-04-25T09:11:44;95402.13;;;7.92
67966;BMP280;54749;47.850;9.002;2023-04-25T09:14:15;95416.78;;;8.19
67966;BMP280;54749;47.850;9.002;2023-04-25T09:17:02;95405.00;;;8.52
67966;BMP280;54749;47.850;9.002;2023-04-25T09:19:39;95408.69;;;8.89
67966;BMP280;54749;47.850;9.002;2023-04-25T09:22:19;95410.16;;;9.33
67966;BMP280;54749;47.850;9.002;2023-04-25T09:24:49;95401.75;;;9.63
67966;BMP280;54749;47.850;9.002;2023-04-25T09:27:21;95403.00;;;9.88
67966;BMP280;54749;47.850;9.002;2023-04-25T09:30:12;95411.91;;;10.12
67966;BMP280;54749;47.850;9.002;2023-04-25T09:32:57;95403.38;;;10.33
67966;BMP280;54749;47.850;9.002;2023-04-25T09:35:25;95407.03;;;10.58
67966;BMP280;54749;47.850;9.002;2023-04-25T09:37:59;95411.25;;;10.78
67966;BMP280;54749;47.850;9.002;2023-04-25T09:40:46;95403.81;;;10.85
67966;BMP280;54749;47.850;9.002;2023-04-25T09:43:25;95398.84;;;11.50
67966;BMP280;54749;47.850;9.002;2023-04-25T09:45:54;95382.31;;;13.07
67966;BMP280;54749;47.850;9.002;2023-04-25T09:48:27;95393.31;;;14.57
67966;BMP280;54749;47.850;9.002;2023-04-25T09:53:30;95405.09;;;14.91
67966;BMP280;54749;47.850;9.002;2023-04-25T09:56:12;95390.78;;;14.98
67966;BMP280;54749;47.850;9.002;2023-04-25T09:58:40;95391.53;;;15.54
67966;BMP280;54749;47.850;9.002;2023-04-25T10:01:10;95397.41;;;15.24
67966;BMP280;54749;47.850;9.002;2023-04-25T10:03:51;95410.38;;;14.72
67966;BMP280;54749;47.850;9.002;2023-04-25T10:06:38;95401.13;;;14.64
67966;BMP280;54749;47.850;9.002;2023-04-25T10:09:06;95402.56;;;14.58
67966;BMP280;54749;47.850;9.002;2023-04-25T10:11:36;95380.22;;;15.41
67966;BMP280;54749;47.850;9.002;2023-04-25T10:14:04;95387.22;;;16.32
67966;BMP280;54749;47.850;9.002;2023-04-25T10:16:32;95383.50;;;16.58
67966;BMP280;54749;47.850;9.002;2023-04-25T10:18:59;95384.53;;;16.34
67966;BMP280;54749;47.850;9.002;2023-04-25T10:21:28;95381.72;;;15.98
67966;BMP280;54749;47.850;9.002;2023-04-25T10:23:56;95388.41;;;15.76
67966;BMP280;54749;47.850;9.002;2023-04-25T10:26:24;95400.91;;;15.30
67966;BMP280;54749;47.850;9.002;2023-04-25T10:29:00;95393.59;;;14.87
67966;BMP280;54749;47.850;9.002;2023-04-25T10:31:29;95425.06;;;14.04
67966;BMP280;54749;47.850;9.002;2023-04-25T10:33:59;95408.41;;;14.02
67966;BMP280;54749;47.850;9.002;2023-04-25T10:36:31;95421.31;;;13.91
67966;BMP280;54749;47.850;9.002;2023-04-25T10:39:04;95419.03;;;13.63
67966;BMP280;54749;47.850;9.002;2023-04-25T10:41:52;95429.44;;;13.60
67966;BMP280;54749;47.850;9.002;2023-04-25T10:44:19;95433.81;;;12.55
67966;BMP280;54749;47.850;9.002;2023-04-25T10:46:46;95428.88;;;11.99
67966;BMP280;54749;47.850;9.002;2023-04-25T10:49:34;95440.91;;;11.79
67966;BMP280;54749;47.850;9.002;2023-04-25T10:54:53;95437.56;;;13.03
67966;BMP280;54749;47.850;9.002;2023-04-25T10:57:30;95430.75;;;13.81
67966;BMP280;54749;47.850;9.002;2023-04-25T11:02:43;95425.97;;;14.20
67966;BMP280;54749;47.850;9.002;2023-04-25T11:07:53;95436.00;;;13.97
67966;BMP280;54749;47.850;9.002;2023-04-25T11:10:34;95437.00;;;13.86
67966;BMP280;54749;47.850;9.002;2023-04-25T11:13:04;95435.81;;;13.47
67966;BMP280;54749;47.850;9.002;2023-04-25T11:15:32;95423.28;;;14.71
67966;BMP280;54749;47.850;9.002;2023-04-25T11:17:59;95414.97;;;15.81
67966;BMP280;54749;47.850;9.002;2023-04-25T11:20:27;95411.31;;;16.30
67966;BMP280;54749;47.850;9.002;2023-04-25T11:22:58;95417.56;;;16.04
67966;BMP280;54749;47.850;9.002;2023-04-25T11:25:27;95422.09;;;15.39
67966;BMP280;54749;47.850;9.002;2023-04-25T11:27:59;95427.19;;;15.39
67966;BMP280;54749;47.850;9.002;2023-04-25T11:30:28;95418.88;;;15.21
67966;BMP280;54749;47.850;9.002;2023-04-25T11:32:57;95439.34;;;13.80
67966;BMP280;54749;47.850;9.002;2023-04-25T11:35:24;95441.88;;;13.46
67966;BMP280;54749;47.850;9.002;2023-04-25T11:37:52;95467.16;;;13.12
67966;BMP280;54749;47.850;9.002;2023-04-25T11:40:19;95453.56;;;13.13
67966;BMP280;54749;47.850;9.002;2023-04-25T11:42:47;95443.84;;;14.28
67966;BMP280;54749;47.850;9.002;2023-04-25T11:45:14;95441.31;;;15.33
67966;BMP280;54749;47.850;9.002;2023-04-25T11:47:41;95437.69;;;15.28
67966;BMP280;54749;47.850;9.002;2023-04-25T11:50:09;95439.97;;;15.77
67966;BMP280;54749;47.850;9.002;2023-04-25T11:52:41;95431.72;;;15.91
67966;BMP280;54749;47.850;9.002;2023-04-25T11:55:19;95438.28;;;16.01
67966;BMP280;54749;47.850;9.002;2023-04-25T11:57:48;95444.31;;;16.08
67966;BMP280;54749;47.850;9.002;2023-04-25T12:00:20;95440.94;;;15.84
67966;BMP280;54749;47.850;9.002;2023-04-25T12:02:54;95441.94;;;15.99
67966;BMP280;54749;47.850;9.002;2023-04-25T12:05:27;95443.22;;;15.95
67966;BMP280;54749;47.850;9.002;2023-04-25T12:08:17;95439.03;;;16.33
67966;BMP280;54749;47.850;9.002;2023-04-25T12:10:46;95449.88;;;16.12
67966;BMP280;54749;47.850;9.002;2023-04-25T12:13:24;95447.63;;;16.32
67966;BMP280;54749;47.850;9.002;2023-04-25T12:15:54;95453.94;;;16.67
67966;BMP280;54749;47.850;9.002;2023-04-25T12:18:25;95455.53;;;16.76
67966;BMP280;54749;47.850;9.002;2023-04-25T12:20:55;95450.53;;;16.90
67966;BMP280;54749;47.850;9.002;2023-04-25T12:23:28;95452.66;;;16.79
67966;BMP280;54749;47.850;9.002;2023-04-25T12:25:55;95461.59;;;16.67
67966;BMP280;54749;47.850;9.002;2023-04-25T12:28:24;95462.91;;;16.63
67966;BMP280;54749;47.850;9.002;2023-04-25T12:31:04;95458.31;;;16.43
67966;BMP280;54749;47.850;9.002;2023-04-25T12:33:34;95460.84;;;15.81
67966;BMP280;54749;47.850;9.002;2023-04-25T12:36:03;95464.19;;;15.81
67966;BMP280;54749;47.850;9.002;2023-04-25T12:38:37;95459.63;;;16.00
67966;BMP280;54749;47.850;9.002;2023-04-25T12:41:04;95472.66;;;16.29
67966;BMP280;54749;47.850;9.002;2023-04-25T12:43:32;95461.34;;;16.47
67966;BMP280;54749;47.850;9.002;2023-04-25T12:46:00;95454.78;;;16.52
67966;BMP280;54749;47.850;9.002;2023-04-25T12:48:27;95465.72;;;15.43
67966;BMP280;54749;47.850;9.002;2023-04-25T12:50:54;95490.25;;;14.79
67966;BMP280;54749;47.850;9.002;2023-04-25T12:53:23;95486.94;;;14.87
67966;BMP280;54749;47.850;9.002;2023-04-25T12:55:53;95498.38;;;14.58
67966;BMP280;54749;47.850;9.002;2023-04-25T12:58:20;95497.38;;;14.51
67966;BMP280;54749;47.850;9.002;2023-04-25T13:00:48;95488.63;;;15.43
67966;BMP280;54749;47.850;9.002;2023-04-25T13:03:15;95487.97;;;15.34
67966;BMP280;54749;47.850;9.002;2023-04-25T13:05:43;95497.75;;;15.54
67966;BMP280;54749;47.850;9.002;2023-04-25T13:08:10;95497.06;;;15.44
67966;BMP280;54749;47.850;9.002;2023-04-25T13:10:38;95495.38;;;15.68
67966;BMP280;54749;47.850;9.002;2023-04-25T13:13:06;95500.53;;;15.35
67966;BMP280;54749;47.850;9.002;2023-04-25T13:15:33;95481.13;;;16.06
67966;BMP280;54749;47.850;9.002;2023-04-25T13:18:00;95485.59;;;16.27
67966;BMP280;54749;47.850;9.002;2023-04-25T13:20:28;95498.78;;;15.28
67966;BMP280;54749;47.850;9.002;2023-04-25T13:22:55;95505.34;;;15.46
67966;BMP280;54749;47.850;9.002;2023-04-25T13:25:22;95501.13;;;15.77
67966;BMP280;54749;47.850;9.002;2023-04-25T13:27:49;95501.69;;;15.08
67966;BMP280;54749;47.850;9.002;2023-04-25T13:30:17;95526.25;;;13.74
67966;BMP280;54749;47.850;9.002;2023-04-25T13:32:44;95523.09;;;13.46
67966;BMP280;54749;47.850;9.002;2023-04-25T13:35:12;95535.88;;;13.01
67966;BMP280;54749;47.850;9.002;2023-04-25T13:37:40;95521.34;;;13.20
67966;BMP280;54749;47.850;9.002;2023-04-25T13:40:09;95522.88;;;13.57
67966;BMP280;54749;47.850;9.002;2023-04-25T13:42:38;95522.66;;;13.50
67966;BMP280;54749;47.850;9.002;2023-04-25T13:45:07;95515.25;;;13.57
67966;BMP280;54749;47.850;9.002;2023-04-25T13:47:34;95522.56;;;13.86
67966;BMP280;54749;47.850;9.002;2023-04-25T13:50:05;95514.50;;;13.90
67966;BMP280;54749;47.850;9.002;2023-04-25T13:52:33;95516.94;;;14.34
67966;BMP280;54749;47.850;9.002;2023-04-25T13:55:00;95519.22;;;14.37
67966;BMP280;54749;47.850;9.002;2023-04-25T13:57:33;95522.88;;;14.42
67966;BMP280;54749;47.850;9.002;2023-04-25T14:00:02;95528.31;;;13.88
67966;BMP280;54749;47.850;9.002;2023-04-25T14:02:35;95531.91;;;13.16
67966;BMP280;54749;47.850;9.002;2023-04-25T14:05:04;95531.50;;;13.20
67966;BMP280;54749;47.850;9.002;2023-04-25T14:07:33;95529.41;;;13.59
67966;BMP280;54749;47.850;9.002;2023-04-25T14:10:01;95511.97;;;13.90
67966;BMP280;54749;47.850;9.002;2023-04-25T14:12:28;95510.38;;;14.23
67966;BMP280;54749;47.850;9.002;2023-04-25T14:14:55;95525.09;;;13.86
67966;BMP280;54749;47.850;9.002;2023-04-25T14:17:23;95534.16;;;13.71
67966;BMP280;54749;47.850;9.002;2023-04-25T14:19:50;95543.06;;;13.58
67966;BMP280;54749;47.850;9.002;2023-04-25T14:22:17;95525.81;;;13.79
67966;BMP280;54749;47.850;9.002;2023-04-25T14:24:45;95540.16;;;13.97
67966;BMP280;54749;47.850;9.002;2023-04-25T14:27:12;95538.34;;;14.06
67966;BMP280;54749;47.850;9.002;2023-04-25T14:29:39;95541.22;;;14.11
67966;BMP280;54749;47.850;9.002;2023-04-25T14:32:09;95537.22;;;14.26
67966;BMP280;54749;47.850;9.002;2023-04-25T14:34:37;95549.28;;;14.66
67966;BMP280;54749;47.850;9.002;2023-04-25T14:37:04;95527.63;;;15.11
67966;BMP280;54749;47.850;9.002;2023-04-25T14:39:31;95524.16;;;15.45
67966;BMP280;54749;47.850;9.002;2023-04-25T14:41:58;95525.91;;;15.52
67966;BMP280;54749;47.850;9.002;2023-04-25T14:44:26;95527.66;;;15.59
67966;BMP280;54749;47.850;9.002;2023-04-25T14:46:53;95528.81;;;15.73
67966;BMP280;54749;47.850;9.002;2023-04-25T14:49:21;95516.78;;;15.98